ePrivacy and GPDR Cookie Consent by Cookie Consent
EmailTwitter


Observations de surface / France / LFBO (07630)

Régions: Québec | Canada | États-Unis | Europe | France | UK | Ailleurs
Station
Affichage
Infos & localisation pour LFBO (07630) | Aide pour décoder les METARs

Observations prises le 2022-01-20 à 10H30 UTC à TOULOUSE/BLAGNAC, FR (LFBO)

Etat du ciel: couvert.

Obstacle(s) à la visibilité: faible pluie.

Température: 5.0 Celsius

Point de rosée: 4.0 Celsius

Humidité relative: 93%

Vents: Nord-est à 7 km/h ou 4 noeuds.

Pression au niveau moyen de la mer: 103.10 kilopascals.

Visibilité horizontale: 3.73 milles terrestres ou 5.97 kilomètres.

Hauteur du plafond: 183 mètres ( 600 pieds ).

Observation METAR:

LFBO 201030Z AUTO 04004KT 6000 -RA BKN006 OVC011 05/04 Q1031 BECMG OVC025=